Time;durP1;ratioP1;P1;durP2;ratioP2;P2;SDS_P1;SDS_P2;PMS_P1;PMS_P2;Temp;Humidity;BMP_temperature;BMP_pressure;BME280_temperature;BME280_humidity;BME280_pressure;Samples;Min_cycle;Max_cycle;Signal;HPM_P1;HPM_P2
2022/01/30 00:00:04;;;;;;;0.80;0.38;;;6.60;99.90;;;;;;4891945;29;20128;-78
2022/01/30 00:05:08;;;;;;;1.02;0.40;;;6.60;99.90;;;;;;5467585;23;20059;-83
2022/01/30 00:07:35;;;;;;;3.30;1.23;;;6.60;99.90;;;;;;4897707;29;20421;-85
2022/01/30 00:10:10;;;;;;;0.80;0.35;;;6.60;99.90;;;;;;4916189;29;20484;-85
2022/01/30 00:12:44;;;;;;;1.08;0.38;;;6.60;99.90;;;;;;4915345;29;20066;-85
2022/01/30 00:15:12;;;;;;;1.00;0.40;;;6.60;99.90;;;;;;4908785;29;20136;-86
2022/01/30 00:17:44;;;;;;;1.05;0.40;;;6.60;99.90;;;;;;4916135;29;20052;-86
2022/01/30 00:20:18;;;;;;;0.65;0.35;;;6.60;99.90;;;;;;4917026;29;20112;-86
2022/01/30 00:22:51;;;;;;;1.10;0.30;;;6.60;99.90;;;;;;4910860;29;20109;-87
2022/01/30 00:25:30;;;;;;;1.13;0.50;;;6.60;99.90;;;;;;4911768;29;20059;-87
2022/01/30 00:28:03;;;;;;;0.68;0.30;;;6.60;99.90;;;;;;4897777;29;20053;-86
2022/01/30 00:30:34;;;;;;;1.95;0.50;;;6.70;99.90;;;;;;4897722;29;20045;-87
2022/01/30 00:33:01;;;;;;;0.85;0.40;;;6.70;99.90;;;;;;4905882;29;20139;-87
2022/01/30 00:35:29;;;;;;;1.20;0.43;;;6.80;99.90;;;;;;4908232;29;20086;-86
2022/01/30 00:37:56;;;;;;;1.15;0.60;;;6.80;99.90;;;;;;4917100;29;20091;-88
2022/01/30 00:40:24;;;;;;;0.80;0.40;;;6.80;99.90;;;;;;4917586;29;20055;-88
2022/01/30 00:42:51;;;;;;;2.78;0.80;;;6.80;99.90;;;;;;4916515;29;20493;-88
2022/01/30 00:45:19;;;;;;;2.08;0.70;;;6.80;99.90;;;;;;4916661;29;20545;-88
2022/01/30 00:47:46;;;;;;;0.82;0.43;;;6.80;99.90;;;;;;4913607;29;20530;-88
2022/01/30 00:50:13;;;;;;;1.05;0.43;;;6.80;99.90;;;;;;4902883;29;20139;-87
2022/01/30 00:52:41;;;;;;;1.30;0.50;;;6.80;99.90;;;;;;4920706;29;20072;-88
2022/01/30 00:55:09;;;;;;;1.38;0.50;;;6.80;99.90;;;;;;4912155;29;20055;-87
2022/01/30 00:57:37;;;;;;;1.65;0.60;;;6.80;99.90;;;;;;4919825;29;20087;-87
2022/01/30 01:00:06;;;;;;;1.00;0.50;;;6.80;99.90;;;;;;4919827;29;20446;-88
2022/01/30 01:02:33;;;;;;;1.52;0.60;;;6.80;99.90;;;;;;4920490;29;20135;-89
2022/01/30 01:05:05;;;;;;;1.05;0.50;;;6.80;99.90;;;;;;4919571;29;20143;-88
2022/01/30 01:07:33;;;;;;;1.35;0.40;;;6.80;99.90;;;;;;4905161;29;20051;-88
2022/01/30 01:10:06;;;;;;;2.22;0.80;;;6.80;99.90;;;;;;4912558;29;20490;-89
2022/01/30 01:23:46;;;;;;;1.85;0.80;;;6.90;99.90;;;;;;4903288;29;20045;-89
2022/01/30 01:26:15;;;;;;;1.83;0.60;;;7.00;99.90;;;;;;4894551;29;20112;-88
2022/01/30 01:28:43;;;;;;;2.10;0.90;;;7.00;99.90;;;;;;4915580;29;20048;-88
2022/01/30 01:31:11;;;;;;;2.22;0.68;;;7.00;99.90;;;;;;4921501;29;20134;-89
2022/01/30 01:33:50;;;;;;;1.50;0.63;;;7.00;99.90;;;;;;4893197;29;20116;-90
2022/01/30 01:36:17;;;;;;;1.73;0.80;;;7.00;99.90;;;;;;4901763;29;20088;-88
2022/01/30 01:38:45;;;;;;;1.70;0.70;;;7.00;99.90;;;;;;4901359;29;20087;-88
2022/01/30 01:41:17;;;;;;;1.75;0.80;;;7.00;99.90;;;;;;4900656;29;20100;-88
2022/01/30 01:43:44;;;;;;;1.80;0.70;;;7.00;99.90;;;;;;4901521;29;20244;-88
2022/01/30 01:46:17;;;;;;;2.40;0.80;;;7.00;99.90;;;;;;4901769;29;20076;-88
2022/01/30 01:48:45;;;;;;;2.38;0.80;;;7.00;99.90;;;;;;4919340;29;20147;-88
2022/01/30 01:51:18;;;;;;;2.17;0.80;;;7.00;99.90;;;;;;4919652;29;20143;-87
2022/01/30 01:53:48;;;;;;;2.00;0.95;;;7.00;99.90;;;;;;4919710;29;20060;-88
2022/01/30 01:56:16;;;;;;;2.85;0.90;;;7.00;99.90;;;;;;4918994;29;20225;-88
2022/01/30 01:58:43;;;;;;;2.00;0.80;;;6.90;99.90;;;;;;4918504;29;20144;-87
2022/01/30 02:01:13;;;;;;;2.03;0.80;;;6.90;99.90;;;;;;4910346;29;20123;-87
2022/01/30 02:03:43;;;;;;;1.58;0.80;;;6.90;99.90;;;;;;4913049;29;20080;-87
2022/01/30 02:06:14;;;;;;;2.33;0.80;;;6.90;99.90;;;;;;4912358;29;20095;-88
2022/01/30 02:08:44;;;;;;;1.38;0.68;;;6.90;99.90;;;;;;4900728;29;20059;-90
2022/01/30 02:11:14;;;;;;;2.35;0.85;;;6.90;99.90;;;;;;4900818;29;20086;-88
2022/01/30 02:14:01;;;;;;;1.92;0.88;;;6.90;99.90;;;;;;4913864;29;20406;-88
2022/01/30 02:24:57;;;;;;;2.17;0.90;;;6.90;99.90;;;;;;4910824;29;20063;-85
2022/01/30 02:27:31;;;;;;;2.28;1.00;;;6.80;99.90;;;;;;4901069;29;20043;-87
2022/01/30 02:29:58;;;;;;;2.47;0.88;;;6.80;99.90;;;;;;4882909;29;20048;-88
2022/01/30 02:32:26;;;;;;;1.88;0.90;;;6.80;99.90;;;;;;4899484;29;20127;-88
2022/01/30 02:34:54;;;;;;;1.77;0.85;;;6.70;99.90;;;;;;4914006;29;20048;-87
2022/01/30 02:37:21;;;;;;;1.83;0.90;;;6.70;99.90;;;;;;4910136;29;20588;-87
2022/01/30 02:39:50;;;;;;;2.90;1.02;;;6.60;99.90;;;;;;4888879;29;20047;-88
2022/01/30 02:42:21;;;;;;;2.28;1.00;;;6.60;99.90;;;;;;4916132;29;20057;-87
2022/01/30 02:44:53;;;;;;;2.15;1.00;;;6.60;99.90;;;;;;4899302;29;20159;-87
2022/01/30 02:47:36;;;;;;;2.47;1.02;;;6.60;99.90;;;;;;4902393;29;20055;-88
2022/01/30 02:50:14;;;;;;;2.95;0.93;;;6.60;99.90;;;;;;4913853;29;20071;-86
2022/01/30 02:52:42;;;;;;;1.92;0.90;;;6.50;99.90;;;;;;4899193;29;20132;-86
2022/01/30 02:55:13;;;;;;;2.33;0.85;;;6.50;99.90;;;;;;4907620;29;20100;-87
2022/01/30 02:57:40;;;;;;;2.65;1.10;;;6.50;99.90;;;;;;4918178;29;20131;-88
2022/01/30 03:00:11;;;;;;;2.35;0.90;;;6.50;99.90;;;;;;4917552;29;20088;-87
2022/01/30 03:02:38;;;;;;;1.65;0.85;;;6.50;99.90;;;;;;4899765;29;20072;-88
2022/01/30 03:05:06;;;;;;;2.38;0.90;;;6.50;99.90;;;;;;4899466;29;20057;-88
2022/01/30 03:07:33;;;;;;;2.75;1.08;;;6.50;99.90;;;;;;4903947;29;20095;-87
2022/01/30 03:10:00;;;;;;;2.53;1.10;;;6.50;99.90;;;;;;4897933;29;20051;-87
2022/01/30 03:12:29;;;;;;;3.00;1.10;;;6.50;99.90;;;;;;4902110;29;20140;-87
2022/01/30 03:14:56;;;;;;;4.10;1.20;;;6.50;99.90;;;;;;4911215;29;20076;-88
2022/01/30 03:17:23;;;;;;;3.42;1.10;;;6.50;99.90;;;;;;4910077;29;20084;-90
2022/01/30 03:19:50;;;;;;;1.88;0.95;;;6.50;99.90;;;;;;4918197;29;20132;-88
2022/01/30 03:22:17;;;;;;;2.67;1.10;;;6.40;99.90;;;;;;4902983;29;20140;-88
2022/01/30 03:24:45;;;;;;;2.30;1.10;;;6.40;99.90;;;;;;4913030;29;20045;-87
2022/01/30 03:27:13;;;;;;;2.92;1.17;;;6.40;99.90;;;;;;4908333;29;20394;-88
2022/01/30 03:29:49;;;;;;;2.50;1.30;;;6.40;99.90;;;;;;4917486;29;20052;-87
2022/01/30 03:32:17;;;;;;;2.65;1.20;;;6.30;99.90;;;;;;4901477;29;20052;-87
2022/01/30 03:34:44;;;;;;;2.38;1.10;;;6.30;99.90;;;;;;4917037;29;20135;-87
2022/01/30 03:37:11;;;;;;;2.72;1.10;;;6.30;99.90;;;;;;4911135;29;20054;-88
2022/01/30 03:39:38;;;;;;;2.58;1.10;;;6.30;99.90;;;;;;4917338;29;20055;-88
2022/01/30 03:42:07;;;;;;;3.75;1.38;;;6.30;99.90;;;;;;4910107;29;20136;-89
2022/01/30 03:44:34;;;;;;;2.17;1.13;;;6.30;99.90;;;;;;4911018;29;20055;-89
2022/01/30 03:47:03;;;;;;;2.90;1.20;;;6.30;99.90;;;;;;4917512;29;20139;-88
2022/01/30 03:49:31;;;;;;;3.50;1.48;;;6.30;99.90;;;;;;4917121;29;20048;-88
2022/01/30 03:51:59;;;;;;;2.78;1.23;;;6.30;99.90;;;;;;4909969;29;20108;-87
2022/01/30 03:54:26;;;;;;;2.80;1.35;;;6.30;99.90;;;;;;4898529;29;20060;-88
2022/01/30 03:56:53;;;;;;;3.35;1.40;;;6.30;99.90;;;;;;4898369;29;20135;-85
2022/01/30 03:59:20;;;;;;;3.78;1.42;;;6.30;99.90;;;;;;4897836;29;20147;-86
2022/01/30 04:01:47;;;;;;;2.95;1.45;;;6.30;99.90;;;;;;4898012;29;20477;-87
2022/01/30 04:04:16;;;;;;;2.90;1.40;;;6.30;99.90;;;;;;4905563;29;20138;-87
2022/01/30 04:06:44;;;;;;;2.60;1.38;;;6.30;99.90;;;;;;4912254;29;20135;-87
2022/01/30 04:09:11;;;;;;;3.05;1.40;;;6.30;99.90;;;;;;4901562;29;20160;-87
2022/01/30 04:11:39;;;;;;;3.28;1.40;;;6.30;99.90;;;;;;4904793;29;20131;-87
2022/01/30 04:14:07;;;;;;;2.45;1.40;;;6.30;99.90;;;;;;4898635;29;20143;-86
2022/01/30 04:16:34;;;;;;;3.22;1.38;;;6.30;99.90;;;;;;4898372;29;20064;-87
2022/01/30 04:19:02;;;;;;;2.88;1.38;;;6.30;99.90;;;;;;4905628;29;20052;-88
2022/01/30 04:21:32;;;;;;;2.78;1.45;;;6.30;99.90;;;;;;4910573;29;20051;-88
2022/01/30 04:23:59;;;;;;;3.10;1.65;;;6.30;99.90;;;;;;4901902;29;20095;-87
2022/01/30 04:26:26;;;;;;;2.95;1.40;;;6.30;99.90;;;;;;4912758;29;20062;-87
2022/01/30 04:28:53;;;;;;;2.95;1.50;;;6.30;99.90;;;;;;4920578;29;20119;-88
2022/01/30 04:31:21;;;;;;;2.78;1.23;;;6.30;99.90;;;;;;4920996;29;20087;-88
2022/01/30 04:33:49;;;;;;;3.95;1.45;;;6.40;99.90;;;;;;4906920;29;20131;-88
2022/01/30 04:36:22;;;;;;;3.22;1.40;;;6.40;99.90;;;;;;4902801;29;20131;-87
2022/01/30 04:38:59;;;;;;;2.90;1.30;;;6.40;99.90;;;;;;4920134;29;20421;-86
2022/01/30 04:41:52;;;;;;;3.03;1.60;;;6.30;99.90;;;;;;4901371;29;20058;-87
2022/01/30 04:52:51;;;;;;;3.03;1.00;;;6.30;99.90;;;;;;4916271;29;20096;-87
2022/01/30 04:58:15;;;;;;;3.70;1.45;;;6.30;99.90;;;;;;4906733;29;20064;-84
2022/01/30 05:00:56;;;;;;;3.60;1.52;;;6.30;99.90;;;;;;4919448;29;20546;-85
2022/01/30 05:06:16;;;;;;;5.75;2.08;;;6.30;99.90;;;;;;4904133;29;20056;-85
2022/01/30 05:08:44;;;;;;;7.43;2.47;;;6.30;99.90;;;;;;4912984;29;20055;-85
2022/01/30 05:11:13;;;;;;;3.38;1.50;;;6.30;99.90;;;;;;4919169;29;20576;-86
2022/01/30 05:13:46;;;;;;;4.53;1.63;;;6.30;99.90;;;;;;4918931;29;20091;-86
2022/01/30 05:16:13;;;;;;;3.50;1.25;;;6.30;99.90;;;;;;4918085;29;20052;-86
2022/01/30 05:18:41;;;;;;;4.15;1.50;;;6.30;99.90;;;;;;4912166;29;20140;-86
2022/01/30 05:21:09;;;;;;;2.90;1.38;;;6.30;99.90;;;;;;4900304;29;20165;-86
2022/01/30 05:23:37;;;;;;;3.63;1.20;;;6.30;99.90;;;;;;4900386;29;20132;-86
2022/01/30 05:26:08;;;;;;;2.80;1.20;;;6.30;99.90;;;;;;4900543;29;20131;-85
2022/01/30 05:28:38;;;;;;;3.08;1.00;;;6.20;99.90;;;;;;4900390;29;20120;-86
2022/01/30 05:31:05;;;;;;;2.83;1.23;;;6.30;99.90;;;;;;4900384;29;20206;-85
2022/01/30 05:33:33;;;;;;;2.55;1.10;;;6.30;99.90;;;;;;4911587;29;20132;-85
2022/01/30 05:36:03;;;;;;;2.72;1.00;;;6.30;99.90;;;;;;4918969;29;20143;-85
2022/01/30 05:38:31;;;;;;;2.65;1.10;;;6.30;99.90;;;;;;4915194;29;20564;-85
2022/01/30 05:40:59;;;;;;;2.78;0.90;;;6.30;99.90;;;;;;4907492;29;20054;-86
2022/01/30 05:43:29;;;;;;;3.72;0.90;;;6.30;99.90;;;;;;4908076;29;20088;-86
2022/01/30 05:46:09;;;;;;;2.03;0.80;;;6.30;99.90;;;;;;4915102;29;20055;-86
2022/01/30 05:48:37;;;;;;;2.20;0.70;;;6.30;99.90;;;;;;4900478;29;20052;-85
2022/01/30 05:51:04;;;;;;;1.40;0.60;;;6.30;99.90;;;;;;4899795;29;20140;-85
2022/01/30 05:53:32;;;;;;;1.88;0.80;;;6.20;99.90;;;;;;4899695;29;20581;-85
2022/01/30 05:55:59;;;;;;;3.00;0.80;;;6.20;99.90;;;;;;4899830;29;20561;-85
2022/01/30 05:58:26;;;;;;;2.20;1.00;;;6.20;99.90;;;;;;4914582;29;20577;-85
2022/01/30 06:00:53;;;;;;;1.85;0.70;;;6.20;99.90;;;;;;4905278;29;20142;-85
2022/01/30 06:03:22;;;;;;;2.30;0.90;;;6.20;99.90;;;;;;4909419;29;20132;-86
2022/01/30 06:05:49;;;;;;;2.40;0.80;;;6.20;99.90;;;;;;4913133;29;20517;-86
2022/01/30 06:08:38;;;;;;;2.65;0.85;;;6.20;99.90;;;;;;4916602;29;20088;-85
2022/01/30 06:11:04;;;;;;;2.72;0.98;;;6.30;99.90;;;;;;4899455;29;20052;-87
2022/01/30 06:13:31;;;;;;;2.35;0.80;;;6.30;99.90;;;;;;4900510;29;20135;-85
2022/01/30 06:15:58;;;;;;;1.73;0.82;;;6.30;99.90;;;;;;4904455;29;20095;-82
2022/01/30 06:18:27;;;;;;;2.00;0.90;;;6.30;99.90;;;;;;4917819;29;20135;-82
2022/01/30 06:20:54;;;;;;;2.78;0.90;;;6.30;99.90;;;;;;4906413;29;20091;-90
2022/01/30 06:23:26;;;;;;;1.75;0.80;;;6.30;99.90;;;;;;4912513;29;20127;-87
2022/01/30 06:25:53;;;;;;;1.90;0.90;;;6.30;99.90;;;;;;4915041;29;20482;-86
2022/01/30 06:28:21;;;;;;;1.70;0.80;;;6.30;99.90;;;;;;4903499;29;20052;-86
2022/01/30 06:30:48;;;;;;;2.15;0.82;;;6.30;99.90;;;;;;4910657;29;20108;-87
2022/01/30 06:33:15;;;;;;;2.20;0.80;;;6.40;99.90;;;;;;4899581;29;20139;-87
2022/01/30 06:35:44;;;;;;;2.03;0.75;;;6.40;99.90;;;;;;4903098;29;20139;-86
2022/01/30 06:38:11;;;;;;;2.10;0.85;;;6.30;99.90;;;;;;4899102;29;20554;-87
2022/01/30 06:40:38;;;;;;;2.13;0.80;;;6.40;99.90;;;;;;4914064;29;20497;-85
2022/01/30 06:43:05;;;;;;;3.35;1.00;;;6.30;99.90;;;;;;4925867;29;20047;-87
2022/01/30 06:45:34;;;;;;;3.50;0.90;;;6.30;99.90;;;;;;4916693;29;20143;-86
2022/01/30 06:48:01;;;;;;;2.80;1.00;;;6.30;99.90;;;;;;4917264;29;20438;-87
2022/01/30 06:50:29;;;;;;;4.65;1.10;;;6.30;99.90;;;;;;4913141;29;20384;-87
2022/01/30 06:52:57;;;;;;;4.45;0.98;;;6.30;99.90;;;;;;4899090;29;20055;-87
2022/01/30 06:55:25;;;;;;;2.88;0.90;;;6.30;99.90;;;;;;4897912;29;20055;-87
2022/01/30 06:57:52;;;;;;;3.00;0.98;;;6.30;99.90;;;;;;4905037;29;20538;-89
2022/01/30 07:00:20;;;;;;;3.45;1.00;;;6.20;99.90;;;;;;4917951;29;20059;-84
2022/01/30 07:02:47;;;;;;;4.53;1.00;;;6.20;99.90;;;;;;4904535;29;20206;-85
2022/01/30 07:05:15;;;;;;;3.08;1.00;;;6.20;99.90;;;;;;4916587;29;20056;-85
2022/01/30 07:07:42;;;;;;;3.15;1.08;;;6.20;99.90;;;;;;4917352;29;20051;-85
2022/01/30 07:10:11;;;;;;;2.63;1.13;;;6.20;99.90;;;;;;4916904;29;20063;-85
2022/01/30 07:12:38;;;;;;;4.20;1.40;;;6.20;99.90;;;;;;4916644;29;20059;-84
2022/01/30 07:15:06;;;;;;;6.55;1.60;;;6.20;99.90;;;;;;4917011;29;20131;-84
2022/01/30 07:17:33;;;;;;;5.97;1.52;;;6.20;99.90;;;;;;4916208;29;20044;-84
2022/01/30 07:20:03;;;;;;;6.65;1.92;;;6.20;99.90;;;;;;4916778;29;20143;-85
2022/01/30 07:22:30;;;;;;;6.38;1.45;;;6.20;99.90;;;;;;4916386;29;20135;-84
2022/01/30 07:24:58;;;;;;;6.10;1.70;;;6.20;99.90;;;;;;4909887;29;20147;-87
2022/01/30 07:27:30;;;;;;;4.00;1.60;;;6.20;99.90;;;;;;4912404;29;20131;-85
2022/01/30 07:29:57;;;;;;;5.35;2.08;;;6.20;99.90;;;;;;4899163;29;20151;-85
2022/01/30 07:32:24;;;;;;;5.00;1.40;;;6.20;99.90;;;;;;4899009;29;20135;-86
2022/01/30 07:34:52;;;;;;;8.00;1.65;;;6.20;99.90;;;;;;4911353;29;20086;-85
2022/01/30 07:37:20;;;;;;;7.70;1.90;;;6.20;99.90;;;;;;4916736;29;20634;-85
2022/01/30 07:39:47;;;;;;;6.55;1.83;;;6.20;99.90;;;;;;4906820;29;20060;-79
2022/01/30 07:42:18;;;;;;;8.50;2.08;;;6.20;99.90;;;;;;4914010;29;20087;-85
2022/01/30 07:44:47;;;;;;;7.53;1.90;;;6.20;99.90;;;;;;4915478;29;20044;-83
2022/01/30 07:47:14;;;;;;;9.05;2.35;;;6.20;99.90;;;;;;4894427;29;20142;-86
2022/01/30 07:49:42;;;;;;;7.18;2.17;;;6.20;99.90;;;;;;4916563;29;20440;-86
2022/01/30 07:52:09;;;;;;;9.20;2.30;;;6.20;99.90;;;;;;4902561;29;20135;-86
2022/01/30 07:54:38;;;;;;;9.90;2.67;;;6.20;99.90;;;;;;4910616;29;20094;-85
2022/01/30 07:57:06;;;;;;;8.45;2.50;;;6.20;99.90;;;;;;4915348;29;20080;-86
2022/01/30 07:59:33;;;;;;;11.60;2.70;;;6.20;99.90;;;;;;4904121;29;20082;-86
2022/01/30 08:02:03;;;;;;;9.50;2.80;;;6.20;99.90;;;;;;4908818;29;20127;-85
2022/01/30 08:04:30;;;;;;;9.48;2.63;;;6.20;99.90;;;;;;4919943;29;20903;-85
2022/01/30 08:06:57;;;;;;;10.00;2.60;;;6.20;99.90;;;;;;4901428;29;20135;-83
2022/01/30 08:09:24;;;;;;;9.57;2.70;;;6.20;99.90;;;;;;4901228;29;20139;-83
2022/01/30 08:11:52;;;;;;;9.80;2.50;;;6.20;99.90;;;;;;4917128;29;20485;-83
2022/01/30 08:14:19;;;;;;;12.35;2.50;;;6.20;99.90;;;;;;4919364;29;20096;-84
2022/01/30 08:16:46;;;;;;;12.02;3.13;;;6.20;99.90;;;;;;4920047;29;20157;-84
2022/01/30 08:19:15;;;;;;;12.30;2.47;;;6.20;99.90;;;;;;4919749;29;20135;-84
2022/01/30 08:21:43;;;;;;;12.02;2.75;;;6.20;99.90;;;;;;4918272;29;20052;-83
2022/01/30 08:24:10;;;;;;;12.30;2.67;;;6.20;99.90;;;;;;4901287;29;20140;-83
2022/01/30 08:26:37;;;;;;;12.50;2.95;;;6.20;99.90;;;;;;4901087;29;20075;-84
2022/01/30 08:29:06;;;;;;;9.43;2.47;;;6.20;99.90;;;;;;4907630;29;20478;-83
2022/01/30 08:31:33;;;;;;;10.70;2.33;;;6.20;99.90;;;;;;4908302;29;20080;-83
2022/01/30 08:34:00;;;;;;;9.52;2.42;;;6.20;99.90;;;;;;4900915;29;20577;-85
2022/01/30 08:36:29;;;;;;;8.75;2.35;;;6.10;99.90;;;;;;4918396;29;20063;-88
2022/01/30 08:38:56;;;;;;;6.53;2.45;;;6.10;99.90;;;;;;4917955;29;20131;-83
2022/01/30 08:41:23;;;;;;;9.55;2.50;;;6.10;99.90;;;;;;4909757;29;20518;-83
2022/01/30 08:43:50;;;;;;;10.98;2.60;;;6.10;99.90;;;;;;4917262;29;20124;-84
2022/01/30 08:46:20;;;;;;;17.35;2.85;;;6.10;99.90;;;;;;4919184;29;20055;-84
2022/01/30 08:48:47;;;;;;;16.25;3.47;;;6.10;99.90;;;;;;4919456;29;20060;-85
2022/01/30 08:51:15;;;;;;;7.25;2.40;;;6.10;99.90;;;;;;4918863;29;20084;-85
2022/01/30 08:53:44;;;;;;;10.77;2.80;;;6.10;99.90;;;;;;4918483;29;20100;-84
2022/01/30 08:56:11;;;;;;;9.75;2.90;;;6.10;99.90;;;;;;4918865;29;20190;-84
2022/01/30 08:58:38;;;;;;;9.27;2.80;;;6.20;99.90;;;;;;4916456;29;20139;-86
2022/01/30 09:01:06;;;;;;;10.90;3.00;;;6.20;99.90;;;;;;4919249;29;20055;-83
2022/01/30 09:03:35;;;;;;;11.38;2.90;;;6.20;99.90;;;;;;4917681;29;20044;-83
2022/01/30 09:06:02;;;;;;;10.57;2.35;;;6.20;99.90;;;;;;4904503;29;20091;-84
2022/01/30 09:08:31;;;;;;;10.60;3.13;;;6.20;99.90;;;;;;4917662;29;20139;-85
2022/01/30 09:10:59;;;;;;;8.23;2.78;;;6.20;99.90;;;;;;4919566;29;20067;-85
2022/01/30 09:13:27;;;;;;;10.48;2.70;;;6.30;99.90;;;;;;4921531;29;20464;-86
2022/01/30 09:15:57;;;;;;;8.07;2.60;;;6.30;99.90;;;;;;4918505;29;20056;-84
2022/01/30 09:18:26;;;;;;;11.38;2.85;;;6.30;99.90;;;;;;4915316;29;20048;-87
2022/01/30 09:20:54;;;;;;;8.80;2.60;;;6.30;99.90;;;;;;4917991;29;20585;-87
2022/01/30 09:23:22;;;;;;;8.57;2.33;;;6.30;99.90;;;;;;4905919;29;20128;-87
2022/01/30 09:25:49;;;;;;;9.63;2.55;;;6.30;99.90;;;;;;4901802;29;20132;-87
2022/01/30 09:28:18;;;;;;;8.10;2.50;;;6.40;99.90;;;;;;4909647;29;20135;-86
2022/01/30 09:30:45;;;;;;;11.20;2.60;;;6.40;99.90;;;;;;4918734;29;20135;-87
2022/01/30 09:33:13;;;;;;;10.30;2.30;;;6.40;99.90;;;;;;4908440;29;20136;-85
2022/01/30 09:35:40;;;;;;;8.80;2.58;;;6.40;99.90;;;;;;4918944;29;20142;-86
2022/01/30 09:38:07;;;;;;;11.80;2.63;;;6.50;99.90;;;;;;4918240;29;20055;-87
2022/01/30 09:40:34;;;;;;;11.70;2.45;;;6.50;99.90;;;;;;4900138;29;20129;-87
2022/01/30 09:43:03;;;;;;;12.43;2.75;;;6.60;99.90;;;;;;4900164;29;20128;-87
2022/01/30 09:45:33;;;;;;;11.43;2.38;;;6.60;98.80;;;;;;4900870;29;20075;-87
2022/01/30 09:48:02;;;;;;;11.30;2.67;;;6.70;98.20;;;;;;4910008;29;20515;-85
2022/01/30 09:50:29;;;;;;;14.23;2.95;;;6.70;98.60;;;;;;4910155;29;20048;-84
2022/01/30 09:52:57;;;;;;;16.02;2.72;;;6.80;96.90;;;;;;4913256;29;20134;-83
2022/01/30 09:55:24;;;;;;;11.73;2.38;;;6.80;95.90;;;;;;4913333;29;20046;-89
2022/01/30 09:57:53;;;;;;;9.07;2.45;;;6.80;95.70;;;;;;4917029;29;20078;-85
2022/01/30 10:00:20;;;;;;;8.77;2.38;;;6.80;95.70;;;;;;4912629;29;20067;-84
2022/01/30 10:02:49;;;;;;;12.80;2.80;;;6.80;95.70;;;;;;4917212;29;20134;-85
2022/01/30 10:05:18;;;;;;;9.63;2.03;;;6.80;95.50;;;;;;4908905;29;20091;-86
2022/01/30 10:07:50;;;;;;;14.77;2.90;;;6.80;96.20;;;;;;4915294;29;20377;-87
2022/01/30 10:10:20;;;;;;;12.30;2.10;;;6.80;96.20;;;;;;4918953;29;20044;-90
2022/01/30 10:13:13;;;;;;;10.10;2.20;;;6.80;96.50;;;;;;4907854;29;20103;-85
2022/01/30 10:15:53;;;;;;;13.18;2.78;;;6.90;97.00;;;;;;4914307;29;20054;-84
2022/01/30 10:18:22;;;;;;;9.55;2.28;;;6.90;96.70;;;;;;4904855;29;20091;-85
2022/01/30 10:20:50;;;;;;;14.93;2.67;;;7.00;97.00;;;;;;4910385;29;20127;-87
2022/01/30 10:23:21;;;;;;;12.88;2.55;;;7.00;97.30;;;;;;4906714;29;20148;-83
2022/01/30 10:25:55;;;;;;;10.95;3.00;;;7.00;97.40;;;;;;4906564;29;20131;-85
2022/01/30 10:28:27;;;;;;;13.88;3.20;;;7.20;97.20;;;;;;4917103;29;20052;-84
2022/01/30 10:30:58;;;;;;;10.98;2.38;;;7.20;97.50;;;;;;4917805;29;20401;-83
2022/01/30 10:33:41;;;;;;;10.00;2.75;;;7.30;97.80;;;;;;4899838;29;20080;-85
2022/01/30 10:36:11;;;;;;;11.07;2.20;;;7.40;97.30;;;;;;4898992;29;20088;-83
2022/01/30 10:38:41;;;;;;;8.57;2.50;;;7.50;97.10;;;;;;4898866;29;20049;-82
2022/01/30 10:41:15;;;;;;;14.05;2.47;;;7.40;96.50;;;;;;4901282;29;20048;-83
2022/01/30 10:43:55;;;;;;;10.20;2.67;;;7.40;96.30;;;;;;4912449;29;20059;-86
2022/01/30 10:46:25;;;;;;;9.02;2.38;;;7.40;96.40;;;;;;4911234;29;20326;-83
2022/01/30 10:48:57;;;;;;;9.13;2.30;;;7.30;96.10;;;;;;4913642;29;20052;-83
2022/01/30 10:51:26;;;;;;;10.38;2.50;;;7.30;95.20;;;;;;4913039;29;21637;-85
2022/01/30 10:53:54;;;;;;;11.93;2.40;;;7.30;95.20;;;;;;4915110;29;20043;-92
2022/01/30 10:56:25;;;;;;;9.50;2.13;;;7.30;95.20;;;;;;4905795;29;20050;-84
2022/01/30 10:59:13;;;;;;;9.23;2.35;;;7.30;95.30;;;;;;4913929;29;20155;-84
2022/01/30 11:01:43;;;;;;;8.73;2.10;;;7.30;94.70;;;;;;4918476;29;20059;-87
2022/01/30 11:04:24;;;;;;;13.27;2.88;;;7.40;94.80;;;;;;4919015;29;20048;-84
2022/01/30 11:06:53;;;;;;;16.70;5.13;;;7.40;94.40;;;;;;4917385;29;20557;-85
2022/01/30 11:09:25;;;;;;;12.35;2.67;;;7.50;94.40;;;;;;4916656;29;20056;-83
2022/01/30 11:11:57;;;;;;;12.00;2.40;;;7.50;93.90;;;;;;4901960;29;20092;-85
2022/01/30 11:14:35;;;;;;;11.30;2.38;;;7.50;93.60;;;;;;4911862;29;20463;-82
2022/01/30 11:17:05;;;;;;;10.77;2.28;;;7.40;93.40;;;;;;4912700;29;20078;-83
2022/01/30 11:19:37;;;;;;;12.18;2.60;;;7.40;93.60;;;;;;4912787;29;20059;-83
2022/01/30 11:22:07;;;;;;;6.38;1.95;;;7.30;93.50;;;;;;4917260;29;20106;-84
2022/01/30 11:24:36;;;;;;;12.15;2.72;;;7.30;93.40;;;;;;4915276;29;20087;-86
2022/01/30 11:27:06;;;;;;;10.68;2.30;;;7.30;93.60;;;;;;4916441;29;20044;-84
2022/01/30 11:29:37;;;;;;;11.00;2.25;;;7.30;93.80;;;;;;4902081;29;20044;-82
2022/01/30 11:32:06;;;;;;;12.60;3.00;;;7.30;93.50;;;;;;4907396;29;20383;-83
2022/01/30 11:34:36;;;;;;;14.18;2.55;;;7.40;92.90;;;;;;4897318;29;20072;-82
2022/01/30 11:37:04;;;;;;;11.18;2.40;;;7.40;93.60;;;;;;4897788;29;20048;-84
2022/01/30 11:39:32;;;;;;;10.25;2.00;;;7.40;93.40;;;;;;4913525;29;20140;-81
2022/01/30 11:42:15;;;;;;;11.27;2.35;;;7.50;93.40;;;;;;4916701;29;20450;-82
2022/01/30 11:44:43;;;;;;;6.15;1.88;;;7.50;92.50;;;;;;4906189;29;20044;-83
2022/01/30 11:47:26;;;;;;;10.32;2.42;;;7.60;92.30;;;;;;4901741;29;20414;-84
2022/01/30 11:50:09;;;;;;;12.90;2.40;;;7.60;93.10;;;;;;4898950;29;20454;-83
2022/01/30 11:53:07;;;;;;;11.10;2.50;;;7.70;91.60;;;;;;4905677;29;20091;-84
2022/01/30 11:55:50;;;;;;;8.73;2.10;;;7.80;91.70;;;;;;4824690;29;20130;-84
2022/01/30 11:58:41;;;;;;;7.63;1.80;;;7.80;90.30;;;;;;4910279;29;20501;-84
2022/01/30 12:01:37;;;;;;;9.82;1.90;;;7.80;90.40;;;;;;4900100;29;20053;-85
2022/01/30 12:04:13;;;;;;;9.38;1.77;;;7.90;88.70;;;;;;4914754;29;20055;-85
2022/01/30 12:06:54;;;;;;;12.40;1.90;;;7.90;87.40;;;;;;4916764;29;20077;-82
2022/01/30 12:09:32;;;;;;;8.02;1.70;;;7.90;85.20;;;;;;4885494;29;20127;-84
2022/01/30 12:12:05;;;;;;;10.27;1.88;;;7.90;85.20;;;;;;4880881;29;20052;-83
2022/01/30 12:14:56;;;;;;;10.70;2.38;;;7.90;87.00;;;;;;4897694;29;20048;-84
2022/01/30 12:17:50;;;;;;;9.70;2.45;;;8.00;87.60;;;;;;4905053;29;20577;-84
2022/01/30 12:20:19;;;;;;;9.02;2.45;;;7.90;86.00;;;;;;4891676;29;20490;-83
2022/01/30 12:22:48;;;;;;;8.07;1.85;;;7.90;85.10;;;;;;4905756;29;20060;-83
2022/01/30 12:25:36;;;;;;;9.00;2.15;;;7.90;86.80;;;;;;4903832;29;20072;-86
2022/01/30 12:28:12;;;;;;;11.52;2.20;;;8.00;85.70;;;;;;4903664;29;20083;-83
2022/01/30 12:30:50;;;;;;;12.48;2.17;;;8.10;85.80;;;;;;4911818;29;20076;-82
2022/01/30 12:33:39;;;;;;;8.75;2.22;;;8.10;86.10;;;;;;4897068;29;20392;-83
2022/01/30 12:36:23;;;;;;;14.10;3.90;;;8.20;86.10;;;;;;4896031;29;20049;-83
2022/01/30 12:39:14;;;;;;;9.15;2.28;;;8.30;82.50;;;;;;4899933;29;20518;-85
2022/01/30 12:41:42;;;;;;;9.00;2.30;;;8.40;81.40;;;;;;4915912;29;20490;-86
2022/01/30 12:44:13;;;;;;;9.13;2.08;;;8.40;82.50;;;;;;4902061;29;20075;-83
2022/01/30 12:46:46;;;;;;;8.93;2.25;;;8.40;83.10;;;;;;4919364;29;20048;-84
2022/01/30 12:49:16;;;;;;;7.68;2.30;;;8.50;83.40;;;;;;4903878;29;20409;-82
2022/01/30 12:51:48;;;;;;;8.93;2.13;;;8.60;85.40;;;;;;4911569;29;20135;-83
2022/01/30 12:54:19;;;;;;;7.43;1.95;;;8.80;83.30;;;;;;4908168;29;20186;-82
2022/01/30 12:56:47;;;;;;;11.65;2.30;;;8.80;80.90;;;;;;4919206;29;20056;-82
2022/01/30 12:59:16;;;;;;;9.65;2.28;;;8.80;81.60;;;;;;4911032;29;20047;-85
2022/01/30 13:01:45;;;;;;;13.52;2.78;;;8.90;82.00;;;;;;4917079;29;20074;-84
2022/01/30 13:04:15;;;;;;;12.25;2.38;;;8.80;82.20;;;;;;4918287;29;20055;-84
2022/01/30 13:06:46;;;;;;;10.82;3.05;;;8.70;81.20;;;;;;4919252;29;20066;-83
2022/01/30 13:09:21;;;;;;;8.57;2.25;;;8.60;81.20;;;;;;4919432;29;20142;-84
2022/01/30 13:11:48;;;;;;;9.82;2.25;;;8.50;79.10;;;;;;4917459;29;20047;-83
2022/01/30 13:14:15;;;;;;;10.10;1.98;;;8.40;80.80;;;;;;4919324;29;20048;-82
2022/01/30 13:16:46;;;;;;;10.52;2.10;;;8.30;82.40;;;;;;4919240;29;20063;-81
2022/01/30 13:19:28;;;;;;;12.90;2.72;;;8.30;80.90;;;;;;4919028;29;20068;-82
2022/01/30 13:21:56;;;;;;;9.63;1.95;;;8.20;80.50;;;;;;4915350;29;20218;-82
2022/01/30 13:24:24;;;;;;;10.95;2.65;;;8.10;80.80;;;;;;4901021;29;20506;-82
2022/01/30 13:26:58;;;;;;;8.10;2.08;;;8.00;79.30;;;;;;4907936;29;20128;-80
2022/01/30 13:29:27;;;;;;;9.05;2.13;;;8.00;79.40;;;;;;4917383;29;20132;-80
2022/01/30 13:31:57;;;;;;;9.45;2.30;;;8.00;80.00;;;;;;4918453;29;20147;-81
2022/01/30 13:34:27;;;;;;;9.50;2.10;;;8.10;78.70;;;;;;4918361;29;20063;-79
2022/01/30 13:37:02;;;;;;;6.95;2.10;;;8.20;79.50;;;;;;4901036;29;20048;-81
2022/01/30 13:39:38;;;;;;;;;;;8.40;80.00;;;;;;4918792;29;20048;-80
2022/01/30 13:48:16;;;;;;;7.55;2.10;;;9.70;75.20;;;;;;4918227;29;20087;-80
2022/01/30 13:50:46;;;;;;;8.80;2.13;;;10.40;70.50;;;;;;4917573;29;20134;-80
2022/01/30 13:53:16;;;;;;;10.07;2.33;;;10.30;69.60;;;;;;4916846;29;20060;-80